sensor_id;sensor_type;location;lat;lon;timestamp;pressure;altitude;pressure_sealevel;temperature
76898;BMP180;65856;52.178;21.176;2023-07-28T00:02:18;99754.20;;;16.50
76898;BMP180;65856;52.178;21.176;2023-07-28T00:04:43;99754.60;;;16.50
76898;BMP180;65856;52.178;21.176;2023-07-28T00:07:09;99753.60;;;16.50
76898;BMP180;65856;52.178;21.176;2023-07-28T00:09:34;99752.40;;;16.50
76898;BMP180;65856;52.178;21.176;2023-07-28T00:12:00;99757.00;;;16.54
76898;BMP180;65856;52.178;21.176;2023-07-28T00:14:27;99756.00;;;16.60
76898;BMP180;65856;52.178;21.176;2023-07-28T00:16:56;99755.20;;;16.60
76898;BMP180;65856;52.178;21.176;2023-07-28T00:19:22;99757.40;;;16.50
76898;BMP180;65856;52.178;21.176;2023-07-28T00:21:49;99755.20;;;16.52
76898;BMP180;65856;52.178;21.176;2023-07-28T00:24:18;99757.00;;;16.60
76898;BMP180;65856;52.178;21.176;2023-07-28T00:26:44;99751.40;;;16.60
76898;BMP180;65856;52.178;21.176;2023-07-28T00:29:10;99749.20;;;16.60
76898;BMP180;65856;52.178;21.176;2023-07-28T00:31:35;99743.60;;;16.60
76898;BMP180;65856;52.178;21.176;2023-07-28T00:34:02;99748.00;;;16.60
76898;BMP180;65856;52.178;21.176;2023-07-28T00:36:29;99747.80;;;16.60
76898;BMP180;65856;52.178;21.176;2023-07-28T00:38:55;99743.60;;;16.60
76898;BMP180;65856;52.178;21.176;2023-07-28T00:41:21;99742.60;;;16.60
76898;BMP180;65856;52.178;21.176;2023-07-28T00:43:47;99738.40;;;16.60
76898;BMP180;65856;52.178;21.176;2023-07-28T00:46:14;99737.40;;;16.60
76898;BMP180;65856;52.178;21.176;2023-07-28T00:48:40;99739.20;;;16.60
76898;BMP180;65856;52.178;21.176;2023-07-28T00:51:07;99734.60;;;16.60
76898;BMP180;65856;52.178;21.176;2023-07-28T00:53:33;99736.60;;;16.64
76898;BMP180;65856;52.178;21.176;2023-07-28T00:56:00;99735.00;;;16.70
76898;BMP180;65856;52.178;21.176;2023-07-28T00:58:27;99731.00;;;16.70
76898;BMP180;65856;52.178;21.176;2023-07-28T01:00:52;99725.20;;;16.66
76898;BMP180;65856;52.178;21.176;2023-07-28T01:03:20;99722.20;;;16.62
76898;BMP180;65856;52.178;21.176;2023-07-28T01:06:02;99721.40;;;16.70
76898;BMP180;65856;52.178;21.176;2023-07-28T01:09:04;99722.40;;;16.70
76898;BMP180;65856;52.178;21.176;2023-07-28T01:11:32;99720.60;;;16.70
76898;BMP180;65856;52.178;21.176;2023-07-28T01:13:57;99720.40;;;16.70
76898;BMP180;65856;52.178;21.176;2023-07-28T01:16:23;99721.40;;;16.70
76898;BMP180;65856;52.178;21.176;2023-07-28T01:18:49;99714.20;;;16.70
76898;BMP180;65856;52.178;21.176;2023-07-28T01:21:30;99710.20;;;16.78
76898;BMP180;65856;52.178;21.176;2023-07-28T01:24:07;99712.20;;;16.70
76898;BMP180;65856;52.178;21.176;2023-07-28T01:26:38;99711.00;;;16.70
76898;BMP180;65856;52.178;21.176;2023-07-28T01:29:06;99706.00;;;16.70
76898;BMP180;65856;52.178;21.176;2023-07-28T01:31:31;99700.40;;;16.70
76898;BMP180;65856;52.178;21.176;2023-07-28T01:33:57;99697.20;;;16.70
76898;BMP180;65856;52.178;21.176;2023-07-28T01:36:23;99696.00;;;16.70
76898;BMP180;65856;52.178;21.176;2023-07-28T01:38:48;99688.00;;;16.70
76898;BMP180;65856;52.178;21.176;2023-07-28T01:41:14;99675.60;;;16.70
76898;BMP180;65856;52.178;21.176;2023-07-28T01:43:39;99677.00;;;16.70
76898;BMP180;65856;52.178;21.176;2023-07-28T01:46:07;99675.60;;;16.60
76898;BMP180;65856;52.178;21.176;2023-07-28T01:48:33;99676.00;;;16.60
76898;BMP180;65856;52.178;21.176;2023-07-28T01:50:58;99685.20;;;16.60
76898;BMP180;65856;52.178;21.176;2023-07-28T01:53:24;99685.80;;;16.68
76898;BMP180;65856;52.178;21.176;2023-07-28T01:55:49;99686.00;;;16.70
76898;BMP180;65856;52.178;21.176;2023-07-28T01:58:15;99678.40;;;16.70
76898;BMP180;65856;52.178;21.176;2023-07-28T02:00:40;99676.00;;;16.70
76898;BMP180;65856;52.178;21.176;2023-07-28T02:03:06;99677.40;;;16.70
76898;BMP180;65856;52.178;21.176;2023-07-28T02:05:32;99670.20;;;16.70
76898;BMP180;65856;52.178;21.176;2023-07-28T02:07:58;99674.00;;;16.70
76898;BMP180;65856;52.178;21.176;2023-07-28T02:10:23;99679.40;;;16.70
76898;BMP180;65856;52.178;21.176;2023-07-28T02:12:51;99683.40;;;16.70
76898;BMP180;65856;52.178;21.176;2023-07-28T02:15:17;99678.80;;;16.70
76898;BMP180;65856;52.178;21.176;2023-07-28T02:17:43;99677.80;;;16.70
76898;BMP180;65856;52.178;21.176;2023-07-28T02:20:09;99676.60;;;16.70
76898;BMP180;65856;52.178;21.176;2023-07-28T02:22:39;99676.60;;;16.70
76898;BMP180;65856;52.178;21.176;2023-07-28T02:25:05;99675.80;;;16.70
76898;BMP180;65856;52.178;21.176;2023-07-28T02:27:31;99673.60;;;16.66
76898;BMP180;65856;52.178;21.176;2023-07-28T02:29:57;99674.00;;;16.60
76898;BMP180;65856;52.178;21.176;2023-07-28T02:32:22;99669.80;;;16.70
76898;BMP180;65856;52.178;21.176;2023-07-28T02:34:48;99671.20;;;16.62
76898;BMP180;65856;52.178;21.176;2023-07-28T02:37:15;99667.40;;;16.60
76898;BMP180;65856;52.178;21.176;2023-07-28T02:39:41;99662.40;;;16.60
76898;BMP180;65856;52.178;21.176;2023-07-28T02:42:07;99656.00;;;16.60
76898;BMP180;65856;52.178;21.176;2023-07-28T02:44:32;99656.00;;;16.60
76898;BMP180;65856;52.178;21.176;2023-07-28T02:46:58;99651.60;;;16.62
76898;BMP180;65856;52.178;21.176;2023-07-28T02:49:23;99653.80;;;16.60
76898;BMP180;65856;52.178;21.176;2023-07-28T02:51:49;99654.60;;;16.60
76898;BMP180;65856;52.178;21.176;2023-07-28T02:54:14;99660.00;;;16.60
76898;BMP180;65856;52.178;21.176;2023-07-28T02:56:40;99663.00;;;16.68
76898;BMP180;65856;52.178;21.176;2023-07-28T02:59:06;99663.80;;;16.70
76898;BMP180;65856;52.178;21.176;2023-07-28T03:01:31;99664.80;;;16.70
76898;BMP180;65856;52.178;21.176;2023-07-28T03:04:01;99668.80;;;16.70
76898;BMP180;65856;52.178;21.176;2023-07-28T03:06:28;99666.60;;;16.70
76898;BMP180;65856;52.178;21.176;2023-07-28T03:08:54;99666.80;;;16.78
76898;BMP180;65856;52.178;21.176;2023-07-28T03:11:20;99661.00;;;16.80
76898;BMP180;65856;52.178;21.176;2023-07-28T03:13:45;99650.80;;;16.80
76898;BMP180;65856;52.178;21.176;2023-07-28T03:16:11;99643.40;;;16.80
76898;BMP180;65856;52.178;21.176;2023-07-28T03:18:37;99639.00;;;16.70
76898;BMP180;65856;52.178;21.176;2023-07-28T03:21:02;99645.40;;;16.70
76898;BMP180;65856;52.178;21.176;2023-07-28T03:23:28;99646.60;;;16.70
76898;BMP180;65856;52.178;21.176;2023-07-28T03:25:53;99643.60;;;16.68
76898;BMP180;65856;52.178;21.176;2023-07-28T03:28:19;99642.20;;;16.66
76898;BMP180;65856;52.178;21.176;2023-07-28T03:30:44;99643.60;;;16.62
76898;BMP180;65856;52.178;21.176;2023-07-28T03:33:10;99633.80;;;16.60
76898;BMP180;65856;52.178;21.176;2023-07-28T03:35:35;99644.20;;;16.60
76898;BMP180;65856;52.178;21.176;2023-07-28T03:38:01;99641.20;;;16.60
76898;BMP180;65856;52.178;21.176;2023-07-28T03:40:26;99640.20;;;16.60
76898;BMP180;65856;52.178;21.176;2023-07-28T03:42:52;99637.40;;;16.50
76898;BMP180;65856;52.178;21.176;2023-07-28T03:45:18;99634.40;;;16.50
76898;BMP180;65856;52.178;21.176;2023-07-28T03:47:44;99633.80;;;16.50
76898;BMP180;65856;52.178;21.176;2023-07-28T03:50:10;99638.40;;;16.50
76898;BMP180;65856;52.178;21.176;2023-07-28T03:52:35;99640.20;;;16.50
76898;BMP180;65856;52.178;21.176;2023-07-28T03:55:01;99635.40;;;16.46
76898;BMP180;65856;52.178;21.176;2023-07-28T03:57:27;99634.20;;;16.50
76898;BMP180;65856;52.178;21.176;2023-07-28T03:59:52;99632.60;;;16.40
76898;BMP180;65856;52.178;21.176;2023-07-28T04:02:18;99631.60;;;16.40
76898;BMP180;65856;52.178;21.176;2023-07-28T04:04:43;99625.40;;;16.40
76898;BMP180;65856;52.178;21.176;2023-07-28T04:07:09;99625.20;;;16.40
76898;BMP180;65856;52.178;21.176;2023-07-28T04:09:35;99624.80;;;16.40
76898;BMP180;65856;52.178;21.176;2023-07-28T04:12:00;99624.00;;;16.40
76898;BMP180;65856;52.178;21.176;2023-07-28T04:14:25;99625.20;;;16.40
76898;BMP180;65856;52.178;21.176;2023-07-28T04:16:51;99625.20;;;16.40
76898;BMP180;65856;52.178;21.176;2023-07-28T04:19:16;99619.20;;;16.40
76898;BMP180;65856;52.178;21.176;2023-07-28T04:21:42;99613.20;;;16.50
76898;BMP180;65856;52.178;21.176;2023-07-28T04:24:09;99613.40;;;16.50
76898;BMP180;65856;52.178;21.176;2023-07-28T04:26:34;99616.00;;;16.60
76898;BMP180;65856;52.178;21.176;2023-07-28T04:29:00;99616.60;;;16.60
76898;BMP180;65856;52.178;21.176;2023-07-28T04:31:26;99608.80;;;16.60
76898;BMP180;65856;52.178;21.176;2023-07-28T04:33:51;99609.20;;;16.70
76898;BMP180;65856;52.178;21.176;2023-07-28T04:36:17;99610.20;;;16.70
76898;BMP180;65856;52.178;21.176;2023-07-28T04:38:42;99604.40;;;16.72
76898;BMP180;65856;52.178;21.176;2023-07-28T04:41:08;99599.40;;;16.74
76898;BMP180;65856;52.178;21.176;2023-07-28T04:43:33;99599.80;;;16.80
76898;BMP180;65856;52.178;21.176;2023-07-28T04:45:59;99593.60;;;16.80
76898;BMP180;65856;52.178;21.176;2023-07-28T04:48:24;99597.40;;;16.80
76898;BMP180;65856;52.178;21.176;2023-07-28T04:50:50;99594.20;;;16.80
76898;BMP180;65856;52.178;21.176;2023-07-28T04:53:15;99592.80;;;16.80
76898;BMP180;65856;52.178;21.176;2023-07-28T04:55:40;99591.80;;;16.80
76898;BMP180;65856;52.178;21.176;2023-07-28T04:58:06;99588.20;;;16.88
76898;BMP180;65856;52.178;21.176;2023-07-28T05:00:31;99588.60;;;16.90
76898;BMP180;65856;52.178;21.176;2023-07-28T05:02:57;99588.40;;;16.90
76898;BMP180;65856;52.178;21.176;2023-07-28T05:05:23;99578.80;;;17.00
76898;BMP180;65856;52.178;21.176;2023-07-28T05:07:48;99583.20;;;17.00
76898;BMP180;65856;52.178;21.176;2023-07-28T05:10:14;99586.80;;;17.00
76898;BMP180;65856;52.178;21.176;2023-07-28T05:12:39;99583.60;;;17.04
76898;BMP180;65856;52.178;21.176;2023-07-28T05:15:05;99583.20;;;17.10
76898;BMP180;65856;52.178;21.176;2023-07-28T05:17:36;99579.80;;;17.10
76898;BMP180;65856;52.178;21.176;2023-07-28T05:20:03;99574.80;;;17.20
76898;BMP180;65856;52.178;21.176;2023-07-28T05:22:28;99578.00;;;17.20
76898;BMP180;65856;52.178;21.176;2023-07-28T05:24:54;99578.80;;;17.20
76898;BMP180;65856;52.178;21.176;2023-07-28T05:27:19;99579.00;;;17.20
76898;BMP180;65856;52.178;21.176;2023-07-28T05:29:45;99583.00;;;17.30
76898;BMP180;65856;52.178;21.176;2023-07-28T05:32:10;99579.00;;;17.30
76898;BMP180;65856;52.178;21.176;2023-07-28T05:34:36;99573.20;;;17.30
76898;BMP180;65856;52.178;21.176;2023-07-28T05:37:03;99572.60;;;17.40
76898;BMP180;65856;52.178;21.176;2023-07-28T05:39:28;99570.40;;;17.40
76898;BMP180;65856;52.178;21.176;2023-07-28T05:41:54;99564.80;;;17.48
76898;BMP180;65856;52.178;21.176;2023-07-28T05:44:19;99562.00;;;17.50
76898;BMP180;65856;52.178;21.176;2023-07-28T05:46:45;99566.40;;;17.50
76898;BMP180;65856;52.178;21.176;2023-07-28T05:49:11;99563.00;;;17.60
76898;BMP180;65856;52.178;21.176;2023-07-28T05:51:36;99566.40;;;17.60
76898;BMP180;65856;52.178;21.176;2023-07-28T05:54:02;99565.20;;;17.70
76898;BMP180;65856;52.178;21.176;2023-07-28T05:56:27;99567.80;;;17.70
76898;BMP180;65856;52.178;21.176;2023-07-28T05:58:53;99568.20;;;17.70
76898;BMP180;65856;52.178;21.176;2023-07-28T06:01:19;99564.40;;;17.78
76898;BMP180;65856;52.178;21.176;2023-07-28T06:03:45;99563.80;;;17.80
76898;BMP180;65856;52.178;21.176;2023-07-28T06:06:10;99570.20;;;17.80
76898;BMP180;65856;52.178;21.176;2023-07-28T06:08:36;99570.40;;;17.88
76898;BMP180;65856;52.178;21.176;2023-07-28T06:11:05;99568.00;;;17.90
76898;BMP180;65856;52.178;21.176;2023-07-28T06:13:32;99571.20;;;18.00
76898;BMP180;65856;52.178;21.176;2023-07-28T06:15:58;99568.00;;;18.00
76898;BMP180;65856;52.178;21.176;2023-07-28T06:18:25;99574.60;;;18.10
76898;BMP180;65856;52.178;21.176;2023-07-28T06:20:50;99569.40;;;18.10
76898;BMP180;65856;52.178;21.176;2023-07-28T06:23:16;99571.40;;;18.10
76898;BMP180;65856;52.178;21.176;2023-07-28T06:25:42;99566.00;;;18.12
76898;BMP180;65856;52.178;21.176;2023-07-28T06:28:11;99563.00;;;18.20
76898;BMP180;65856;52.178;21.176;2023-07-28T06:30:38;99563.00;;;18.20
76898;BMP180;65856;52.178;21.176;2023-07-28T06:33:06;99566.80;;;18.30
76898;BMP180;65856;52.178;21.176;2023-07-28T06:35:32;99565.40;;;18.30
76898;BMP180;65856;52.178;21.176;2023-07-28T06:38:00;99566.20;;;18.40
76898;BMP180;65856;52.178;21.176;2023-07-28T06:40:25;99563.60;;;18.50
76898;BMP180;65856;52.178;21.176;2023-07-28T06:42:51;99567.60;;;18.50
76898;BMP180;65856;52.178;21.176;2023-07-28T06:45:17;99570.00;;;18.50
76898;BMP180;65856;52.178;21.176;2023-07-28T06:47:42;99572.00;;;18.50
76898;BMP180;65856;52.178;21.176;2023-07-28T06:50:10;99575.40;;;18.60
76898;BMP180;65856;52.178;21.176;2023-07-28T06:52:36;99574.60;;;18.60
76898;BMP180;65856;52.178;21.176;2023-07-28T06:55:02;99571.60;;;18.66
76898;BMP180;65856;52.178;21.176;2023-07-28T06:57:29;99574.40;;;18.70
76898;BMP180;65856;52.178;21.176;2023-07-28T06:59:55;99578.80;;;18.70
76898;BMP180;65856;52.178;21.176;2023-07-28T07:02:21;99574.20;;;18.70
76898;BMP180;65856;52.178;21.176;2023-07-28T07:04:47;99571.40;;;18.70
76898;BMP180;65856;52.178;21.176;2023-07-28T07:07:13;99567.40;;;18.80
76898;BMP180;65856;52.178;21.176;2023-07-28T07:09:39;99563.00;;;18.80
76898;BMP180;65856;52.178;21.176;2023-07-28T07:12:05;99562.00;;;18.88
76898;BMP180;65856;52.178;21.176;2023-07-28T07:14:31;99550.20;;;18.90
76898;BMP180;65856;52.178;21.176;2023-07-28T07:16:56;99546.20;;;18.90
76898;BMP180;65856;52.178;21.176;2023-07-28T07:19:22;99548.80;;;18.90
76898;BMP180;65856;52.178;21.176;2023-07-28T07:21:47;99566.20;;;18.80
76898;BMP180;65856;52.178;21.176;2023-07-28T07:24:15;99566.40;;;18.80
76898;BMP180;65856;52.178;21.176;2023-07-28T07:26:41;99568.20;;;18.80
76898;BMP180;65856;52.178;21.176;2023-07-28T07:29:07;99572.20;;;18.80
76898;BMP180;65856;52.178;21.176;2023-07-28T07:31:34;99571.40;;;18.70
76898;BMP180;65856;52.178;21.176;2023-07-28T07:34:00;99581.00;;;18.60
76898;BMP180;65856;52.178;21.176;2023-07-28T07:36:25;99582.20;;;18.60
76898;BMP180;65856;52.178;21.176;2023-07-28T07:38:51;99587.40;;;18.50
76898;BMP180;65856;52.178;21.176;2023-07-28T07:41:17;99587.80;;;18.50
76898;BMP180;65856;52.178;21.176;2023-07-28T07:43:46;99584.20;;;18.50
76898;BMP180;65856;52.178;21.176;2023-07-28T07:46:14;99583.60;;;18.48
76898;BMP180;65856;52.178;21.176;2023-07-28T07:48:40;99584.00;;;18.40
76898;BMP180;65856;52.178;21.176;2023-07-28T07:51:07;99575.40;;;18.30
76898;BMP180;65856;52.178;21.176;2023-07-28T07:53:34;99573.40;;;18.30
76898;BMP180;65856;52.178;21.176;2023-07-28T07:56:04;99576.80;;;18.30
76898;BMP180;65856;52.178;21.176;2023-07-28T07:58:30;99577.20;;;18.30
76898;BMP180;65856;52.178;21.176;2023-07-28T08:00:56;99584.60;;;18.20
76898;BMP180;65856;52.178;21.176;2023-07-28T08:03:22;99582.00;;;18.20
76898;BMP180;65856;52.178;21.176;2023-07-28T08:05:47;99578.00;;;18.18
76898;BMP180;65856;52.178;21.176;2023-07-28T08:08:14;99579.40;;;18.10
76898;BMP180;65856;52.178;21.176;2023-07-28T08:10:43;99574.60;;;18.00
76898;BMP180;65856;52.178;21.176;2023-07-28T08:13:09;99572.00;;;18.00
76898;BMP180;65856;52.178;21.176;2023-07-28T08:15:35;99575.00;;;18.00
76898;BMP180;65856;52.178;21.176;2023-07-28T08:18:01;99576.00;;;18.00
76898;BMP180;65856;52.178;21.176;2023-07-28T08:20:26;99582.60;;;18.00
76898;BMP180;65856;52.178;21.176;2023-07-28T08:22:52;99579.20;;;17.98
76898;BMP180;65856;52.178;21.176;2023-07-28T08:25:18;99583.20;;;17.90
76898;BMP180;65856;52.178;21.176;2023-07-28T08:27:44;99577.20;;;17.90
76898;BMP180;65856;52.178;21.176;2023-07-28T08:30:10;99578.40;;;17.90
76898;BMP180;65856;52.178;21.176;2023-07-28T08:32:36;99576.40;;;17.90
76898;BMP180;65856;52.178;21.176;2023-07-28T08:35:03;99574.00;;;18.00
76898;BMP180;65856;52.178;21.176;2023-07-28T08:37:29;99574.40;;;18.00
76898;BMP180;65856;52.178;21.176;2023-07-28T08:39:54;99566.60;;;18.00
76898;BMP180;65856;52.178;21.176;2023-07-28T08:42:21;99561.80;;;18.00
76898;BMP180;65856;52.178;21.176;2023-07-28T08:44:50;99558.00;;;18.00
76898;BMP180;65856;52.178;21.176;2023-07-28T08:47:18;99559.20;;;18.10
76898;BMP180;65856;52.178;21.176;2023-07-28T08:49:44;99562.60;;;18.20
76898;BMP180;65856;52.178;21.176;2023-07-28T08:52:10;99565.80;;;18.20
76898;BMP180;65856;52.178;21.176;2023-07-28T08:54:36;99568.40;;;18.20
76898;BMP180;65856;52.178;21.176;2023-07-28T08:57:01;99571.00;;;18.20
76898;BMP180;65856;52.178;21.176;2023-07-28T08:59:29;99565.40;;;18.22
76898;BMP180;65856;52.178;21.176;2023-07-28T09:01:57;99562.00;;;18.30
76898;BMP180;65856;52.178;21.176;2023-07-28T09:04:25;99566.80;;;18.38
76898;BMP180;65856;52.178;21.176;2023-07-28T09:06:51;99562.00;;;18.40
76898;BMP180;65856;52.178;21.176;2023-07-28T09:09:21;99555.40;;;18.40
76898;BMP180;65856;52.178;21.176;2023-07-28T09:11:54;99551.60;;;18.40
76898;BMP180;65856;52.178;21.176;2023-07-28T09:14:21;99548.20;;;18.30
76898;BMP180;65856;52.178;21.176;2023-07-28T09:16:50;99549.60;;;18.32
76898;BMP180;65856;52.178;21.176;2023-07-28T09:19:16;99542.60;;;18.40
76898;BMP180;65856;52.178;21.176;2023-07-28T09:21:43;99538.40;;;18.40
76898;BMP180;65856;52.178;21.176;2023-07-28T09:24:13;99542.00;;;18.48
76898;BMP180;65856;52.178;21.176;2023-07-28T09:26:45;99546.40;;;18.48
76898;BMP180;65856;52.178;21.176;2023-07-28T09:29:14;99544.80;;;18.50
76898;BMP180;65856;52.178;21.176;2023-07-28T09:31:50;99542.60;;;18.50
76898;BMP180;65856;52.178;21.176;2023-07-28T09:34:27;99547.60;;;18.60
76898;BMP180;65856;52.178;21.176;2023-07-28T09:36:54;99546.60;;;18.60
76898;BMP180;65856;52.178;21.176;2023-07-28T09:39:21;99543.60;;;18.60
76898;BMP180;65856;52.178;21.176;2023-07-28T09:41:47;99533.40;;;18.62
76898;BMP180;65856;52.178;21.176;2023-07-28T09:44:14;99538.00;;;18.70
76898;BMP180;65856;52.178;21.176;2023-07-28T09:46:51;99541.20;;;18.76
76898;BMP180;65856;52.178;21.176;2023-07-28T09:49:28;99534.80;;;18.80
76898;BMP180;65856;52.178;21.176;2023-07-28T09:51:59;99533.40;;;18.80
76898;BMP180;65856;52.178;21.176;2023-07-28T09:54:29;99538.80;;;18.80
76898;BMP180;65856;52.178;21.176;2023-07-28T09:56:59;99529.00;;;18.90
76898;BMP180;65856;52.178;21.176;2023-07-28T09:59:32;99523.00;;;18.90
76898;BMP180;65856;52.178;21.176;2023-07-28T10:02:02;99523.80;;;18.92
76898;BMP180;65856;52.178;21.176;2023-07-28T10:04:29;99530.00;;;19.00
76898;BMP180;65856;52.178;21.176;2023-07-28T10:06:56;99528.80;;;19.06
76898;BMP180;65856;52.178;21.176;2023-07-28T10:09:31;99523.40;;;19.00
76898;BMP180;65856;52.178;21.176;2023-07-28T10:12:00;99515.80;;;19.08
76898;BMP180;65856;52.178;21.176;2023-07-28T10:14:33;99511.00;;;19.10
76898;BMP180;65856;52.178;21.176;2023-07-28T10:17:04;99512.00;;;19.10
76898;BMP180;65856;52.178;21.176;2023-07-28T10:19:35;99511.20;;;19.10
76898;BMP180;65856;52.178;21.176;2023-07-28T10:22:11;99513.20;;;19.20
76898;BMP180;65856;52.178;21.176;2023-07-28T10:24:50;99515.00;;;19.20
76898;BMP180;65856;52.178;21.176;2023-07-28T10:27:38;99514.20;;;19.30
76898;BMP180;65856;52.178;21.176;2023-07-28T10:30:12;99514.20;;;19.30
76898;BMP180;65856;52.178;21.176;2023-07-28T10:32:49;99513.20;;;19.40
76898;BMP180;65856;52.178;21.176;2023-07-28T10:35:25;99508.00;;;19.40
76898;BMP180;65856;52.178;21.176;2023-07-28T10:37:54;99509.80;;;19.40
76898;BMP180;65856;52.178;21.176;2023-07-28T10:40:26;99506.00;;;19.40
76898;BMP180;65856;52.178;21.176;2023-07-28T10:42:54;99499.80;;;19.40
76898;BMP180;65856;52.178;21.176;2023-07-28T10:45:22;99500.80;;;19.40
76898;BMP180;65856;52.178;21.176;2023-07-28T10:47:49;99494.80;;;19.50
76898;BMP180;65856;52.178;21.176;2023-07-28T10:50:15;99500.80;;;19.60
76898;BMP180;65856;52.178;21.176;2023-07-28T10:52:42;99492.20;;;19.60
76898;BMP180;65856;52.178;21.176;2023-07-28T10:55:16;99497.20;;;19.62
76898;BMP180;65856;52.178;21.176;2023-07-28T10:57:45;99491.80;;;19.70
76898;BMP180;65856;52.178;21.176;2023-07-28T11:00:13;99492.40;;;19.70
76898;BMP180;65856;52.178;21.176;2023-07-28T11:02:50;99501.60;;;19.70
76898;BMP180;65856;52.178;21.176;2023-07-28T11:05:26;99496.20;;;19.78
76898;BMP180;65856;52.178;21.176;2023-07-28T11:07:58;99498.00;;;19.82
76898;BMP180;65856;52.178;21.176;2023-07-28T11:10:28;99486.40;;;19.90
76898;BMP180;65856;52.178;21.176;2023-07-28T11:12:59;99485.00;;;20.00
76898;BMP180;65856;52.178;21.176;2023-07-28T11:15:26;99483.40;;;20.02
76898;BMP180;65856;52.178;21.176;2023-07-28T11:17:52;99486.20;;;20.10
76898;BMP180;65856;52.178;21.176;2023-07-28T11:20:22;99483.80;;;20.10
76898;BMP180;65856;52.178;21.176;2023-07-28T11:22:56;99487.80;;;20.20
76898;BMP180;65856;52.178;21.176;2023-07-28T11:25:24;99486.00;;;20.20
76898;BMP180;65856;52.178;21.176;2023-07-28T11:27:52;99484.80;;;20.10
76898;BMP180;65856;52.178;21.176;2023-07-28T11:30:19;99485.20;;;20.10
76898;BMP180;65856;52.178;21.176;2023-07-28T11:32:51;99489.20;;;20.10
76898;BMP180;65856;52.178;21.176;2023-07-28T11:35:21;99491.80;;;20.20
76898;BMP180;65856;52.178;21.176;2023-07-28T11:37:50;99483.60;;;20.30
76898;BMP180;65856;52.178;21.176;2023-07-28T11:40:20;99479.40;;;20.40
76898;BMP180;65856;52.178;21.176;2023-07-28T11:42:53;99484.80;;;20.50
76898;BMP180;65856;52.178;21.176;2023-07-28T11:45:21;99484.40;;;20.60
76898;BMP180;65856;52.178;21.176;2023-07-28T11:50:30;99472.20;;;20.80
76898;BMP180;65856;52.178;21.176;2023-07-28T11:52:59;99469.20;;;20.90
76898;BMP180;65856;52.178;21.176;2023-07-28T11:55:25;99471.00;;;21.10
76898;BMP180;65856;52.178;21.176;2023-07-28T11:57:52;99471.40;;;21.30
76898;BMP180;65856;52.178;21.176;2023-07-28T12:00:24;99476.40;;;21.40
76898;BMP180;65856;52.178;21.176;2023-07-28T12:03:09;99471.80;;;21.50
76898;BMP180;65856;52.178;21.176;2023-07-28T12:05:38;99465.60;;;21.60
76898;BMP180;65856;52.178;21.176;2023-07-28T12:08:05;99472.00;;;21.72
76898;BMP180;65856;52.178;21.176;2023-07-28T12:10:33;99467.80;;;21.90
76898;BMP180;65856;52.178;21.176;2023-07-28T12:13:08;99463.00;;;22.00
76898;BMP180;65856;52.178;21.176;2023-07-28T12:15:40;99461.20;;;22.10
76898;BMP180;65856;52.178;21.176;2023-07-28T12:18:13;99460.20;;;22.20
76898;BMP180;65856;52.178;21.176;2023-07-28T12:23:22;99463.00;;;22.38
76898;BMP180;65856;52.178;21.176;2023-07-28T12:25:49;99449.80;;;22.50
76898;BMP180;65856;52.178;21.176;2023-07-28T12:28:20;99457.00;;;22.60
76898;BMP180;65856;52.178;21.176;2023-07-28T12:30:46;99455.20;;;22.70
76898;BMP180;65856;52.178;21.176;2023-07-28T12:33:14;99456.80;;;22.80
76898;BMP180;65856;52.178;21.176;2023-07-28T12:35:39;99460.40;;;22.86
76898;BMP180;65856;52.178;21.176;2023-07-28T12:38:05;99460.20;;;22.90
76898;BMP180;65856;52.178;21.176;2023-07-28T12:40:33;99464.20;;;22.90
76898;BMP180;65856;52.178;21.176;2023-07-28T12:43:02;99465.80;;;22.90
76898;BMP180;65856;52.178;21.176;2023-07-28T12:45:28;99465.80;;;22.90
76898;BMP180;65856;52.178;21.176;2023-07-28T12:47:55;99469.80;;;23.00
76898;BMP180;65856;52.178;21.176;2023-07-28T12:50:22;99470.60;;;23.10
76898;BMP180;65856;52.178;21.176;2023-07-28T12:52:49;99473.60;;;23.20
76898;BMP180;65856;52.178;21.176;2023-07-28T12:55:17;99472.60;;;23.20
76898;BMP180;65856;52.178;21.176;2023-07-28T12:57:44;99476.40;;;23.20
76898;BMP180;65856;52.178;21.176;2023-07-28T13:00:10;99478.20;;;23.20
76898;BMP180;65856;52.178;21.176;2023-07-28T13:02:42;99484.60;;;23.20
76898;BMP180;65856;52.178;21.176;2023-07-28T13:05:10;99484.80;;;23.10
76898;BMP180;65856;52.178;21.176;2023-07-28T13:07:37;99486.40;;;23.08
76898;BMP180;65856;52.178;21.176;2023-07-28T13:10:06;99488.40;;;23.02
76898;BMP180;65856;52.178;21.176;2023-07-28T13:12:35;99490.80;;;23.08
76898;BMP180;65856;52.178;21.176;2023-07-28T13:15:01;99493.80;;;23.00
76898;BMP180;65856;52.178;21.176;2023-07-28T13:17:27;99494.80;;;22.98
76898;BMP180;65856;52.178;21.176;2023-07-28T13:19:52;99490.20;;;22.90
76898;BMP180;65856;52.178;21.176;2023-07-28T13:22:18;99489.40;;;22.90
76898;BMP180;65856;52.178;21.176;2023-07-28T13:24:44;99491.40;;;22.86
76898;BMP180;65856;52.178;21.176;2023-07-28T13:27:09;99491.40;;;22.80
76898;BMP180;65856;52.178;21.176;2023-07-28T13:29:35;99485.00;;;22.80
76898;BMP180;65856;52.178;21.176;2023-07-28T13:32:01;99488.00;;;22.80
76898;BMP180;65856;52.178;21.176;2023-07-28T13:34:27;99494.80;;;22.80
76898;BMP180;65856;52.178;21.176;2023-07-28T13:36:54;99497.60;;;22.80
76898;BMP180;65856;52.178;21.176;2023-07-28T13:39:21;99503.80;;;22.70
76898;BMP180;65856;52.178;21.176;2023-07-28T13:41:47;99498.80;;;22.70
76898;BMP180;65856;52.178;21.176;2023-07-28T13:44:13;99502.60;;;22.70
76898;BMP180;65856;52.178;21.176;2023-07-28T13:46:38;99505.60;;;22.70
76898;BMP180;65856;52.178;21.176;2023-07-28T13:49:03;99506.40;;;22.66
76898;BMP180;65856;52.178;21.176;2023-07-28T13:51:29;99516.00;;;22.60
76898;BMP180;65856;52.178;21.176;2023-07-28T13:53:54;99509.80;;;22.54
76898;BMP180;65856;52.178;21.176;2023-07-28T13:56:20;99506.80;;;22.50
76898;BMP180;65856;52.178;21.176;2023-07-28T13:58:46;99499.60;;;22.50
76898;BMP180;65856;52.178;21.176;2023-07-28T14:01:11;99499.60;;;22.60
76898;BMP180;65856;52.178;21.176;2023-07-28T14:03:37;99497.20;;;22.60